Time;durP1;ratioP1;P1;durP2;ratioP2;P2;SDS_P1;SDS_P2;PMS_P1;PMS_P2;Temp;Humidity;BMP_temperature;BMP_pressure;BME280_temperature;BME280_humidity;BME280_pressure;Samples;Min_cycle;Max_cycle;Signal;HPM_P1;HPM_P2
2023/08/24 00:00:52;;;;;;;;;;;19.30;99.90;;;;;;2083864;28;19924;-80
2023/08/24 00:01:52;;;;;;;;;;;19.40;99.90;;;;;;2083533;28;19916;-78
2023/08/24 00:02:53;;;;;;;;;;;19.30;99.90;;;;;;2075836;28;20335;-78
2023/08/24 00:03:53;;;;;;;;;;;19.30;99.90;;;;;;2076281;28;19921;-79
2023/08/24 00:04:54;;;;;;;;;;;19.30;99.90;;;;;;2067728;28;19925;-77
2023/08/24 00:05:56;;;;;;;;;;;19.30;99.90;;;;;;2070265;28;19913;-78
2023/08/24 00:06:57;;;;;;;;;;;19.30;99.90;;;;;;2075760;28;19927;-78
2023/08/24 00:07:57;;;;;;;;;;;19.30;99.90;;;;;;2076307;28;20134;-79
2023/08/24 00:08:59;;;;;;;;;;;19.20;99.90;;;;;;2063619;28;20392;-78
2023/08/24 00:09:59;;;;;;;;;;;19.20;99.90;;;;;;2075698;28;19917;-78
2023/08/24 00:11:00;;;;;;;;;;;19.20;99.90;;;;;;2075729;28;20419;-78
2023/08/24 00:12:00;;;;;;;;;;;19.20;99.90;;;;;;2069510;28;19936;-78
2023/08/24 00:13:01;;;;;;;;;;;19.20;99.90;;;;;;2071508;28;19919;-78
2023/08/24 00:14:02;;;;;;;;;;;19.20;99.90;;;;;;2070503;28;19917;-79
2023/08/24 00:15:03;;;;;;;;;;;19.20;99.90;;;;;;2080498;28;19917;-78
2023/08/24 00:16:04;;;;;;;;;;;19.10;99.90;;;;;;2079814;28;19913;-78
2023/08/24 00:17:04;;;;;;;;;;;19.10;99.90;;;;;;2076075;28;20414;-79
2023/08/24 00:18:05;;;;;;;;;;;19.10;99.90;;;;;;2076185;28;19927;-77
2023/08/24 00:19:06;;;;;;;;;;;19.10;99.90;;;;;;2076269;28;19936;-77
2023/08/24 00:20:10;;;;;;;;;;;19.10;99.90;;;;;;2071239;28;20568;-78
2023/08/24 00:21:12;;;;;;;;;;;19.10;99.90;;;;;;2064683;28;19913;-78
2023/08/24 00:22:13;;;;;;;;;;;19.10;99.90;;;;;;2075644;28;19968;-78
2023/08/24 00:23:13;;;;;;;;;;;19.10;99.90;;;;;;2076589;28;19967;-78
2023/08/24 00:24:14;;;;;;;;;;;19.10;99.90;;;;;;2076241;28;19917;-79
2023/08/24 00:25:14;;;;;;;;;;;19.10;99.90;;;;;;2076076;28;19917;-78
2023/08/24 00:26:18;;;;;;;;;;;19.00;99.90;;;;;;2083827;28;20354;-79
2023/08/24 00:27:18;;;;;;;;;;;19.10;99.90;;;;;;2083412;28;20029;-78
2023/08/24 00:28:19;;;;;;;;;;;19.00;99.90;;;;;;2075113;28;19921;-79
2023/08/24 00:29:21;;;;;;;;;;;19.00;99.90;;;;;;2075489;28;19924;-78
2023/08/24 00:30:23;;;;;;;;;;;19.00;99.90;;;;;;2065522;28;19961;-79
2023/08/24 00:31:24;;;;;;;;;;;19.00;99.90;;;;;;2065899;28;20351;-78
2023/08/24 00:32:24;;;;;;;;;;;19.00;99.90;;;;;;2060723;28;20889;-77
2023/08/24 00:33:25;;;;;;;;;;;18.90;99.90;;;;;;2074990;28;19921;-77
2023/08/24 00:34:28;;;;;;;;;;;18.90;99.90;;;;;;2076092;28;20050;-78
2023/08/24 00:35:29;;;;;;;;;;;18.90;99.90;;;;;;2075451;28;19921;-78
2023/08/24 00:36:29;;;;;;;;;;;18.90;99.90;;;;;;2075373;28;20297;-78
2023/08/24 00:37:30;;;;;;;;;;;18.90;99.90;;;;;;2071205;28;20360;-78
2023/08/24 00:38:31;;;;;;;;;;;18.90;99.90;;;;;;2065244;28;19914;-79
2023/08/24 00:39:32;;;;;;;;;;;18.90;99.90;;;;;;2075607;28;19920;-79
2023/08/24 00:40:34;;;;;;;;;;;18.90;99.90;;;;;;2075861;28;20007;-79
2023/08/24 00:41:35;;;;;;;;;;;18.90;99.90;;;;;;2075944;28;19917;-79
2023/08/24 00:42:39;;;;;;;;;;;18.90;99.90;;;;;;2072016;28;19960;-79
2023/08/24 00:43:41;;;;;;;;;;;18.90;99.90;;;;;;2071483;28;19959;-80
2023/08/24 00:44:41;;;;;;;;;;;18.90;99.90;;;;;;2073578;28;19919;-78
2023/08/24 00:45:42;;;;;;;;;;;18.90;99.90;;;;;;2080387;28;19913;-79
2023/08/24 00:46:42;;;;;;;;;;;18.80;99.90;;;;;;2083793;28;19920;-78
2023/08/24 00:47:44;;;;;;;;;;;18.80;99.90;;;;;;2083607;28;20389;-78
2023/08/24 00:48:45;;;;;;;;;;;18.80;99.90;;;;;;2083448;28;20163;-77
2023/08/24 00:49:46;;;;;;;;;;;18.80;99.90;;;;;;2075496;28;19917;-78
2023/08/24 00:50:46;;;;;;;;;;;18.80;99.90;;;;;;2067050;28;19920;-78
2023/08/24 00:51:47;;;;;;;;;;;18.80;99.90;;;;;;2064077;28;19924;-78
2023/08/24 00:52:49;;;;;;;;;;;18.70;99.90;;;;;;2066289;28;19918;-78
2023/08/24 00:53:49;;;;;;;;;;;18.70;99.90;;;;;;2070295;28;19921;-79
2023/08/24 00:54:50;;;;;;;;;;;18.70;99.90;;;;;;2068084;28;19917;-78
2023/08/24 00:55:51;;;;;;;;;;;18.70;99.90;;;;;;2067693;28;19917;-79
2023/08/24 00:56:52;;;;;;;;;;;18.70;99.90;;;;;;2071349;28;19913;-78
2023/08/24 00:57:53;;;;;;;;;;;18.70;99.90;;;;;;2073023;28;19913;-78
2023/08/24 00:58:54;;;;;;;;;;;18.70;99.90;;;;;;2070511;28;20408;-79
2023/08/24 00:59:56;;;;;;;;;;;18.70;99.90;;;;;;2069935;28;20309;-78
2023/08/24 01:00:56;;;;;;;;;;;18.70;99.90;;;;;;2077947;28;20315;-79
2023/08/24 01:01:58;;;;;;;;;;;18.70;99.90;;;;;;2063551;28;19922;-78
2023/08/24 01:02:59;;;;;;;;;;;18.70;99.90;;;;;;2063902;28;20567;-78
2023/08/24 01:03:59;;;;;;;;;;;18.70;99.90;;;;;;2074554;28;19917;-78
2023/08/24 01:05:00;;;;;;;;;;;18.70;99.90;;;;;;2075806;28;19917;-79
2023/08/24 01:06:00;;;;;;;;;;;18.70;99.90;;;;;;2072776;28;20540;-78
2023/08/24 01:07:01;;;;;;;;;;;18.70;99.90;;;;;;2076295;28;19917;-79
2023/08/24 01:08:01;;;;;;;;;;;18.70;99.90;;;;;;2076007;28;19917;-79
2023/08/24 01:09:02;;;;;;;;;;;18.70;99.90;;;;;;2075230;28;20310;-78
2023/08/24 01:10:06;;;;;;;;;;;18.70;99.90;;;;;;2075247;28;20471;-81
2023/08/24 01:11:25;;;;;;;;;;;18.60;99.90;;;;;;2075297;28;19917;-79
2023/08/24 01:12:31;;;;;;;;;;;18.70;99.90;;;;;;2078061;28;19982;-78
2023/08/24 01:13:41;;;;;;;;;;;18.60;99.90;;;;;;2075291;28;19924;-78
2023/08/24 01:14:58;;;;;;;;;;;18.60;99.90;;;;;;2071687;28;20418;-78
2023/08/24 01:16:19;;;;;;;;;;;18.60;99.90;;;;;;2069014;28;19918;-77
2023/08/24 01:17:22;;;;;;;;;;;18.60;99.90;;;;;;2076192;28;19940;-78
2023/08/24 01:18:26;;;;;;;;;;;18.60;99.90;;;;;;2074931;28;19940;-78
2023/08/24 01:19:43;;;;;;;;;;;18.60;99.90;;;;;;2075258;28;20375;-78
2023/08/24 01:20:44;;;;;;;;;;;18.60;99.90;;;;;;2080114;28;19917;-78
2023/08/24 01:21:45;;;;;;;;;;;18.60;99.90;;;;;;2085463;28;19999;-79
2023/08/24 01:23:02;;;;;;;;;;;18.60;99.90;;;;;;2086317;28;19922;-78
2023/08/24 01:24:10;;;;;;;;;;;18.50;99.90;;;;;;2074955;28;19913;-79
2023/08/24 01:25:23;;;;;;;;;;;18.50;99.90;;;;;;2063854;28;20364;-79
2023/08/24 01:26:25;;;;;;;;;;;18.50;99.90;;;;;;2068697;28;19924;-79
2023/08/24 01:27:26;;;;;;;;;;;18.50;99.90;;;;;;2075121;28;19917;-79
2023/08/24 01:28:27;;;;;;;;;;;18.40;99.90;;;;;;2075716;28;20866;-79
2023/08/24 01:29:28;;;;;;;;;;;18.40;99.90;;;;;;2075774;28;20030;-79
2023/08/24 01:30:30;;;;;;;;;;;18.40;99.90;;;;;;2076095;28;19921;-79
2023/08/24 01:31:31;;;;;;;;;;;18.40;99.90;;;;;;2075701;28;20000;-80
2023/08/24 01:32:32;;;;;;;;;;;18.40;99.90;;;;;;2075752;28;19940;-80
2023/08/24 01:33:33;;;;;;;;;;;18.40;99.90;;;;;;2075713;28;20470;-79
2023/08/24 01:34:36;;;;;;;;;;;18.30;99.90;;;;;;2075004;28;20008;-80
2023/08/24 01:35:36;;;;;;;;;;;18.40;99.90;;;;;;2074965;28;19917;-79
2023/08/24 01:36:37;;;;;;;;;;;18.40;99.90;;;;;;2075586;28;19990;-79
2023/08/24 01:37:38;;;;;;;;;;;18.40;99.90;;;;;;2074906;28;19961;-79
2023/08/24 01:38:38;;;;;;;;;;;18.30;99.90;;;;;;2066840;28;19929;-79
2023/08/24 01:39:44;;;;;;;;;;;18.30;99.90;;;;;;2075368;28;19924;-79
2023/08/24 01:40:59;;;;;;;;;;;18.30;99.90;;;;;;2079766;28;20660;-79
2023/08/24 01:42:01;;;;;;;;;;;18.30;99.90;;;;;;2081358;28;19939;-80
2023/08/24 01:43:03;;;;;;;;;;;18.30;99.90;;;;;;2075683;28;20007;-79
2023/08/24 01:44:06;;;;;;;;;;;18.30;99.90;;;;;;2075795;28;19917;-79
2023/08/24 01:45:08;;;;;;;;;;;18.30;99.90;;;;;;2083629;28;20741;-80
2023/08/24 01:46:09;;;;;;;;;;;18.20;99.90;;;;;;2082873;28;20021;-77
2023/08/24 01:47:11;;;;;;;;;;;18.20;99.90;;;;;;2075632;28;19917;-79
2023/08/24 01:48:12;;;;;;;;;;;18.20;99.90;;;;;;2075606;28;19913;-80
2023/08/24 01:49:14;;;;;;;;;;;18.20;99.90;;;;;;2075880;28;19951;-78
2023/08/24 01:50:15;;;;;;;;;;;18.20;99.90;;;;;;2075651;28;19917;-79
2023/08/24 01:51:16;;;;;;;;;;;18.20;99.90;;;;;;2077106;28;19917;-80
2023/08/24 01:52:18;;;;;;;;;;;18.20;99.90;;;;;;2075336;28;20369;-80
2023/08/24 01:53:19;;;;;;;;;;;18.20;99.90;;;;;;2074907;28;20027;-79
2023/08/24 01:54:20;;;;;;;;;;;18.20;99.90;;;;;;2074174;28;20448;-81
2023/08/24 01:55:20;;;;;;;;;;;18.20;99.90;;;;;;2074905;28;20478;-81
2023/08/24 01:56:21;;;;;;;;;;;18.20;99.90;;;;;;2075231;28;20004;-80
2023/08/24 01:57:21;;;;;;;;;;;18.10;99.90;;;;;;2075337;28;19917;-80
2023/08/24 01:58:22;;;;;;;;;;;18.20;99.90;;;;;;2066892;28;19921;-80
2023/08/24 01:59:22;;;;;;;;;;;18.20;99.90;;;;;;2074780;28;19913;-81
2023/08/24 02:00:23;;;;;;;;;;;18.20;99.90;;;;;;2077290;28;20352;-80
2023/08/24 02:01:23;;;;;;;;;;;18.20;99.90;;;;;;2074930;28;20684;-80
2023/08/24 02:02:24;;;;;;;;;;;18.10;99.90;;;;;;2075391;28;19913;-80
2023/08/24 02:03:25;;;;;;;;;;;18.20;99.90;;;;;;2075080;28;19948;-80
2023/08/24 02:04:26;;;;;;;;;;;18.10;99.90;;;;;;2083225;28;19913;-81
2023/08/24 02:05:28;;;;;;;;;;;18.10;99.90;;;;;;2074957;28;20392;-81
2023/08/24 02:06:29;;;;;;;;;;;18.10;99.90;;;;;;2067353;28;19921;-81
2023/08/24 02:07:29;;;;;;;;;;;18.20;99.90;;;;;;2068251;28;20007;-81
2023/08/24 02:08:30;;;;;;;;;;;18.20;99.90;;;;;;2072572;28;19921;-80
2023/08/24 02:09:31;;;;;;;;;;;18.20;99.90;;;;;;2062741;28;20439;-81
2023/08/24 02:10:31;;;;;;;;;;;18.20;99.90;;;;;;2074072;28;19917;-71
2023/08/24 02:11:32;;;;;;;;;;;18.20;99.90;;;;;;2067644;28;20308;-80
2023/08/24 02:12:32;;;;;;;;;;;18.10;99.90;;;;;;2065706;28;20426;-75
2023/08/24 02:13:33;;;;;;;;;;;18.20;99.90;;;;;;2075468;28;19963;-77
2023/08/24 02:14:34;;;;;;;;;;;18.20;99.90;;;;;;2075564;28;19913;-79
2023/08/24 02:15:34;;;;;;;;;;;18.20;99.90;;;;;;2074975;28;19967;-74
2023/08/24 02:16:35;;;;;;;;;;;18.10;99.90;;;;;;2074534;28;19952;-73
2023/08/24 02:17:36;;;;;;;;;;;18.10;99.90;;;;;;2066376;28;20342;-73
2023/08/24 02:18:36;;;;;;;;;;;18.10;99.90;;;;;;2071385;28;19929;-74
2023/08/24 02:19:38;;;;;;;;;;;18.10;99.90;;;;;;2074496;28;20541;-73
2023/08/24 02:20:39;;;;;;;;;;;18.10;99.90;;;;;;2075375;28;19929;-73
2023/08/24 02:21:39;;;;;;;;;;;18.10;99.90;;;;;;2083141;28;19923;-74
2023/08/24 02:22:40;;;;;;;;;;;18.10;99.90;;;;;;2082640;28;19917;-74
2023/08/24 02:23:41;;;;;;;;;;;18.20;99.90;;;;;;2070648;28;19992;-73
2023/08/24 02:24:42;;;;;;;;;;;18.20;99.90;;;;;;2074384;28;20000;-73
2023/08/24 02:25:43;;;;;;;;;;;18.10;99.90;;;;;;2069930;28;20017;-73
2023/08/24 02:26:44;;;;;;;;;;;18.20;99.90;;;;;;2062112;28;19917;-73
2023/08/24 02:27:44;;;;;;;;;;;18.10;99.90;;;;;;2071145;28;20032;-73
2023/08/24 02:28:45;;;;;;;;;;;18.10;99.90;;;;;;2075140;28;19948;-74
2023/08/24 02:29:45;;;;;;;;;;;18.10;99.90;;;;;;2075373;28;19917;-73
2023/08/24 02:30:49;;;;;;;;;;;18.10;99.90;;;;;;2074291;28;20514;-73
2023/08/24 02:31:52;;;;;;;;;;;18.10;99.90;;;;;;2066613;28;19913;-73
2023/08/24 02:32:52;;;;;;;;;;;18.10;99.90;;;;;;2074392;28;19965;-74
2023/08/24 02:33:52;;;;;;;;;;;18.00;99.90;;;;;;2075186;28;19920;-73
2023/08/24 02:34:53;;;;;;;;;;;18.00;99.90;;;;;;2075186;28;20367;-73
2023/08/24 02:35:53;;;;;;;;;;;18.00;99.90;;;;;;2077054;28;20415;-74
2023/08/24 02:36:54;;;;;;;;;;;18.00;99.90;;;;;;2074294;28;19921;-74
2023/08/24 02:37:56;;;;;;;;;;;18.00;99.90;;;;;;2074416;28;20038;-73
2023/08/24 02:38:57;;;;;;;;;;;18.00;99.90;;;;;;2075486;28;20573;-74
2023/08/24 02:39:58;;;;;;;;;;;18.00;99.90;;;;;;2074619;28;19917;-74
2023/08/24 02:41:05;;;;;;;;;;;18.00;99.90;;;;;;2074488;28;20004;-74
2023/08/24 02:42:06;;;;;;;;;;;18.00;99.90;;;;;;2079006;28;20391;-74
2023/08/24 02:43:07;;;;;;;;;;;18.00;99.90;;;;;;2078658;28;19949;-74
2023/08/24 02:44:08;;;;;;;;;;;18.00;99.90;;;;;;2074886;28;19917;-74
2023/08/24 02:45:09;;;;;;;;;;;18.00;99.90;;;;;;2067135;28;20012;-73
2023/08/24 02:46:10;;;;;;;;;;;18.00;99.90;;;;;;2070591;28;20004;-73
2023/08/24 02:47:11;;;;;;;;;;;18.00;99.90;;;;;;2075099;28;20350;-74
2023/08/24 02:48:11;;;;;;;;;;;18.00;99.90;;;;;;2058587;28;19938;-74
2023/08/24 02:49:12;;;;;;;;;;;18.00;99.90;;;;;;2070492;28;19914;-73
2023/08/24 02:50:12;;;;;;;;;;;17.90;99.90;;;;;;2071605;28;20003;-74
2023/08/24 02:51:13;;;;;;;;;;;17.90;99.90;;;;;;2077708;28;19913;-73
2023/08/24 02:52:13;;;;;;;;;;;17.90;99.90;;;;;;2084927;28;19916;-74
2023/08/24 02:53:14;;;;;;;;;;;17.90;99.90;;;;;;2076603;28;20021;-74
2023/08/24 02:54:14;;;;;;;;;;;17.90;99.90;;;;;;2076602;28;19917;-73
2023/08/24 02:55:15;;;;;;;;;;;17.90;99.90;;;;;;2084078;28;19931;-74
2023/08/24 02:56:16;;;;;;;;;;;17.90;99.90;;;;;;2074651;28;19917;-74
2023/08/24 02:57:16;;;;;;;;;;;17.90;99.90;;;;;;2074497;28;19917;-74
2023/08/24 02:58:17;;;;;;;;;;;17.90;99.90;;;;;;2074695;28;19913;-74
2023/08/24 02:59:18;;;;;;;;;;;17.90;99.90;;;;;;2072887;28;19952;-74
2023/08/24 03:00:22;;;;;;;;;;;17.80;99.90;;;;;;2067682;28;20068;-74
2023/08/24 03:01:22;;;;;;;;;;;17.80;99.90;;;;;;2074666;28;20415;-73
2023/08/24 03:02:23;;;;;;;;;;;17.80;99.90;;;;;;2074306;28;19920;-74
2023/08/24 03:03:24;;;;;;;;;;;17.80;99.90;;;;;;2075010;28;19993;-74
2023/08/24 03:04:24;;;;;;;;;;;17.80;99.90;;;;;;2068777;28;19925;-74
2023/08/24 03:05:26;;;;;;;;;;;17.70;99.90;;;;;;2062485;28;20454;-74
2023/08/24 03:06:27;;;;;;;;;;;17.80;99.90;;;;;;2061389;28;20028;-73
2023/08/24 03:07:27;;;;;;;;;;;17.80;99.90;;;;;;2063787;28;20365;-73
2023/08/24 03:08:31;;;;;;;;;;;17.80;99.90;;;;;;2075834;28;19924;-73
2023/08/24 03:09:32;;;;;;;;;;;17.70;99.90;;;;;;2083788;28;19921;-73
2023/08/24 03:10:36;;;;;;;;;;;17.80;99.90;;;;;;2076775;28;19951;-73
2023/08/24 03:11:36;;;;;;;;;;;17.80;99.90;;;;;;2075619;28;19957;-73
2023/08/24 03:12:37;;;;;;;;;;;17.80;99.90;;;;;;2062890;28;19917;-73
2023/08/24 03:13:38;;;;;;;;;;;17.80;99.90;;;;;;2075830;28;19995;-73
2023/08/24 03:14:38;;;;;;;;;;;17.80;99.90;;;;;;2071898;28;19917;-73
2023/08/24 03:15:39;;;;;;;;;;;17.70;99.90;;;;;;2076038;28;19917;-73
2023/08/24 03:16:39;;;;;;;;;;;17.80;99.90;;;;;;2075786;28;19948;-73
2023/08/24 03:17:40;;;;;;;;;;;17.80;99.90;;;;;;2059650;28;19937;-73
2023/08/24 03:18:41;;;;;;;;;;;17.70;99.90;;;;;;2059366;28;19928;-73
2023/08/24 03:19:42;;;;;;;;;;;17.80;99.90;;;;;;2075973;28;19984;-74
2023/08/24 03:20:43;;;;;;;;;;;17.70;99.90;;;;;;2079250;28;19923;-74
2023/08/24 03:21:44;;;;;;;;;;;17.70;99.90;;;;;;2067787;28;19922;-75
2023/08/24 03:22:44;;;;;;;;;;;17.70;99.90;;;;;;2067709;28;20418;-74
2023/08/24 03:23:45;;;;;;;;;;;17.70;99.90;;;;;;2075935;28;20011;-74
2023/08/24 03:24:45;;;;;;;;;;;17.70;99.90;;;;;;2076061;28;20572;-74
2023/08/24 03:25:46;;;;;;;;;;;17.70;99.90;;;;;;2072827;28;19921;-74
2023/08/24 03:26:48;;;;;;;;;;;17.70;99.90;;;;;;2075829;28;20414;-74
2023/08/24 03:27:50;;;;;;;;;;;17.60;99.90;;;;;;2063000;28;19918;-74
2023/08/24 03:28:52;;;;;;;;;;;17.60;99.90;;;;;;2062619;28;19968;-74
2023/08/24 03:29:53;;;;;;;;;;;17.60;99.90;;;;;;2074313;28;19975;-74
2023/08/24 03:30:55;;;;;;;;;;;17.60;99.90;;;;;;2075696;28;20012;-74
2023/08/24 03:31:56;;;;;;;;;;;17.60;99.90;;;;;;2075919;28;19921;-74
2023/08/24 03:32:58;;;;;;;;;;;17.50;99.90;;;;;;2075554;28;19917;-74
2023/08/24 03:33:58;;;;;;;;;;;17.50;99.90;;;;;;2075853;28;19917;-74
2023/08/24 03:34:59;;;;;;;;;;;17.50;99.90;;;;;;2069979;28;19951;-74
2023/08/24 03:36:03;;;;;;;;;;;17.50;99.90;;;;;;2077129;28;19917;-74
2023/08/24 03:37:03;;;;;;;;;;;17.50;99.90;;;;;;2075565;28;20907;-73
2023/08/24 03:38:04;;;;;;;;;;;17.50;99.90;;;;;;2059483;28;19918;-72
2023/08/24 03:39:05;;;;;;;;;;;17.50;99.90;;;;;;2064689;28;20545;-73
2023/08/24 03:40:06;;;;;;;;;;;17.50;99.90;;;;;;2079822;28;20386;-74
2023/08/24 03:41:07;;;;;;;;;;;17.40;99.90;;;;;;2075562;28;19917;-73
2023/08/24 03:42:08;;;;;;;;;;;17.40;99.90;;;;;;2076034;28;19967;-73
2023/08/24 03:43:08;;;;;;;;;;;17.40;99.90;;;;;;2075779;28;19924;-73
2023/08/24 03:44:09;;;;;;;;;;;17.40;99.90;;;;;;2075789;28;19916;-73
2023/08/24 03:45:10;;;;;;;;;;;17.40;99.90;;;;;;2070092;28;20419;-73
2023/08/24 03:46:12;;;;;;;;;;;17.40;99.90;;;;;;2068665;28;19921;-73
2023/08/24 03:47:16;;;;;;;;;;;17.40;99.90;;;;;;2056235;28;20415;-74
2023/08/24 03:48:17;;;;;;;;;;;17.50;99.90;;;;;;2072629;28;20000;-73
2023/08/24 03:49:18;;;;;;;;;;;17.50;99.90;;;;;;2078487;28;19912;-73
2023/08/24 03:50:18;;;;;;;;;;;17.50;99.90;;;;;;2072161;28;20521;-74
2023/08/24 03:51:19;;;;;;;;;;;17.50;99.90;;;;;;2072280;28;19917;-73
2023/08/24 03:52:21;;;;;;;;;;;17.40;99.90;;;;;;2079677;28;20317;-74
2023/08/24 03:53:23;;;;;;;;;;;17.50;99.90;;;;;;2086730;28;19923;-74
2023/08/24 03:54:23;;;;;;;;;;;17.40;99.90;;;;;;2081014;28;20351;-74
2023/08/24 03:55:25;;;;;;;;;;;17.40;99.90;;;;;;2080093;28;20290;-73
2023/08/24 03:56:25;;;;;;;;;;;17.40;99.90;;;;;;2072375;28;19918;-74
2023/08/24 03:57:26;;;;;;;;;;;17.40;99.90;;;;;;2075535;28;19948;-73
2023/08/24 03:58:27;;;;;;;;;;;17.40;99.90;;;;;;2059611;28;19918;-74
2023/08/24 03:59:28;;;;;;;;;;;17.40;99.90;;;;;;2055524;28;19949;-74
2023/08/24 04:00:28;;;;;;;;;;;17.40;99.90;;;;;;2075602;28;19913;-74
2023/08/24 04:01:29;;;;;;;;;;;17.40;99.90;;;;;;2076219;28;19953;-74
2023/08/24 04:02:30;;;;;;;;;;;17.40;99.90;;;;;;2077668;28;19952;-74
2023/08/24 04:03:30;;;;;;;;;;;17.30;99.90;;;;;;2075781;28;19920;-74
2023/08/24 04:04:31;;;;;;;;;;;17.40;99.90;;;;;;2084002;28;20816;-75
2023/08/24 04:05:31;;;;;;;;;;;17.40;99.90;;;;;;2075480;28;19917;-74
2023/08/24 04:06:33;;;;;;;;;;;17.40;99.90;;;;;;2053099;28;19921;-74
2023/08/24 04:07:36;;;;;;;;;;;17.40;99.90;;;;;;2059629;28;19944;-74
2023/08/24 04:08:36;;;;;;;;;;;17.40;99.90;;;;;;2074594;28;19990;-73
2023/08/24 04:09:37;;;;;;;;;;;17.40;99.90;;;;;;2068534;28;20538;-73
2023/08/24 04:10:37;;;;;;;;;;;17.40;99.90;;;;;;2071236;28;19965;-74
2023/08/24 04:11:38;;;;;;;;;;;17.30;99.90;;;;;;2078295;28;19912;-73
2023/08/24 04:12:38;;;;;;;;;;;17.30;99.90;;;;;;2071364;28;19940;-74
2023/08/24 04:13:39;;;;;;;;;;;17.40;99.90;;;;;;2075686;28;19923;-73
2023/08/24 04:14:39;;;;;;;;;;;17.40;99.90;;;;;;2071816;28;19964;-73
2023/08/24 04:15:40;;;;;;;;;;;17.40;99.90;;;;;;2059218;28;20375;-73
2023/08/24 04:16:41;;;;;;;;;;;17.40;99.90;;;;;;2067259;28;20404;-73
2023/08/24 04:17:42;;;;;;;;;;;17.40;99.90;;;;;;2082899;28;20059;-74
2023/08/24 04:18:42;;;;;;;;;;;17.40;99.90;;;;;;2075958;28;20363;-73
2023/08/24 04:19:43;;;;;;;;;;;17.40;99.90;;;;;;2076109;28;19913;-74
2023/08/24 04:20:44;;;;;;;;;;;17.40;99.90;;;;;;2076270;28;19917;-74
2023/08/24 04:21:44;;;;;;;;;;;17.40;99.90;;;;;;2076283;28;20383;-74
2023/08/24 04:22:45;;;;;;;;;;;17.40;99.90;;;;;;2075229;28;20342;-75
2023/08/24 04:23:46;;;;;;;;;;;17.40;99.90;;;;;;2071636;28;19913;-72
2023/08/24 04:24:46;;;;;;;;;;;17.40;99.90;;;;;;2076158;28;19917;-75
2023/08/24 04:25:47;;;;;;;;;;;17.40;99.90;;;;;;2075246;28;20386;-75
2023/08/24 04:26:47;;;;;;;;;;;17.40;99.90;;;;;;2067145;28;20028;-74
2023/08/24 04:27:48;;;;;;;;;;;17.50;99.90;;;;;;2076494;28;19924;-79
2023/08/24 04:28:49;;;;;;;;;;;17.50;99.90;;;;;;2075766;28;19943;-81
2023/08/24 04:29:50;;;;;;;;;;;17.50;99.90;;;;;;2067871;28;19929;-82
2023/08/24 04:30:54;;;;;;;;;;;17.50;99.90;;;;;;2076264;28;20404;-81
2023/08/24 04:31:54;;;;;;;;;;;17.50;99.90;;;;;;2079359;28;20354;-82
2023/08/24 04:32:55;;;;;;;;;;;17.50;99.90;;;;;;2071504;28;19957;-81
2023/08/24 04:33:55;;;;;;;;;;;17.60;99.90;;;;;;2072458;28;19921;-81
2023/08/24 04:34:56;;;;;;;;;;;17.60;99.90;;;;;;2076041;28;19939;-83
2023/08/24 04:35:58;;;;;;;;;;;17.60;99.90;;;;;;2057951;28;19953;-83
2023/08/24 04:36:58;;;;;;;;;;;17.60;99.90;;;;;;2066212;28;19914;-83
2023/08/24 04:37:58;;;;;;;;;;;17.70;99.90;;;;;;2067388;28;20078;-82
2023/08/24 04:38:59;;;;;;;;;;;17.70;99.90;;;;;;2064514;28;19936;-82
2023/08/24 04:39:59;;;;;;;;;;;17.70;99.90;;;;;;2067693;28;19987;-83
2023/08/24 04:41:00;;;;;;;;;;;17.70;99.90;;;;;;2073941;28;19917;-83
2023/08/24 04:42:02;;;;;;;;;;;17.70;99.90;;;;;;2076122;28;20591;-79
2023/08/24 04:43:03;;;;;;;;;;;17.80;99.90;;;;;;2076085;28;20379;-80
2023/08/24 04:44:03;;;;;;;;;;;17.90;99.90;;;;;;2075276;28;19917;-78
2023/08/24 04:45:04;;;;;;;;;;;17.90;99.90;;;;;;2075348;28;19917;-77
2023/08/24 04:46:04;;;;;;;;;;;17.80;99.90;;;;;;2067279;28;20325;-81
2023/08/24 04:47:05;;;;;;;;;;;17.80;99.90;;;;;;2067255;28;19922;-79
2023/08/24 04:48:06;;;;;;;;;;;17.90;99.90;;;;;;2067195;28;20004;-80
2023/08/24 04:49:06;;;;;;;;;;;17.90;99.90;;;;;;2067115;28;19917;-78
2023/08/24 04:50:07;;;;;;;;;;;17.80;99.90;;;;;;2082271;28;20019;-78
2023/08/24 04:51:08;;;;;;;;;;;17.80;99.90;;;;;;2083554;28;20012;-78
2023/08/24 04:52:08;;;;;;;;;;;17.80;99.90;;;;;;2075906;28;19917;-78
2023/08/24 04:53:09;;;;;;;;;;;17.80;99.90;;;;;;2075950;28;19924;-78
2023/08/24 04:54:09;;;;;;;;;;;17.90;99.90;;;;;;2075829;28;19952;-73
2023/08/24 04:55:10;;;;;;;;;;;17.90;99.90;;;;;;2075908;28;19917;-74
2023/08/24 04:56:11;;;;;;;;;;;17.90;99.90;;;;;;2070737;28;20013;-73
2023/08/24 04:57:11;;;;;;;;;;;17.90;99.90;;;;;;2066929;28;20247;-74
2023/08/24 04:58:13;;;;;;;;;;;18.00;99.90;;;;;;2075875;28;19917;-74
2023/08/24 04:59:14;;;;;;;;;;;18.00;99.90;;;;;;2075725;28;19945;-74
2023/08/24 05:00:16;;;;;;;;;;;18.00;99.90;;;;;;2075089;28;20446;-74
2023/08/24 05:01:16;;;;;;;;;;;18.00;99.90;;;;;;2067169;28;19913;-74
2023/08/24 05:02:17;;;;;;;;;;;18.10;99.90;;;;;;2066744;28;19986;-71
2023/08/24 05:03:19;;;;;;;;;;;18.10;99.90;;;;;;2074947;28;19913;-74
2023/08/24 05:04:19;;;;;;;;;;;18.10;99.90;;;;;;2075742;28;19921;-73
2023/08/24 05:05:20;;;;;;;;;;;18.10;99.90;;;;;;2075087;28;19921;-74
2023/08/24 05:06:21;;;;;;;;;;;18.10;99.90;;;;;;2075101;28;19944;-74
2023/08/24 05:07:21;;;;;;;;;;;18.10;99.90;;;;;;2075323;28;19917;-74
2023/08/24 05:08:22;;;;;;;;;;;18.20;99.90;;;;;;2075171;28;20074;-74
2023/08/24 05:09:23;;;;;;;;;;;18.30;99.90;;;;;;2075612;28;19992;-73
2023/08/24 05:10:23;;;;;;;;;;;18.40;99.90;;;;;;2066806;28;19925;-74
2023/08/24 05:11:26;;;;;;;;;;;18.60;99.90;;;;;;2066599;28;20016;-73
2023/08/24 05:12:26;;;;;;;;;;;18.80;99.90;;;;;;2072309;28;19913;-75
2023/08/24 05:13:27;;;;;;;;;;;19.00;99.90;;;;;;2075648;28;19991;-74
2023/08/24 05:14:27;;;;;;;;;;;19.30;99.90;;;;;;2075890;28;20570;-74
2023/08/24 05:15:28;;;;;;;;;;;19.60;99.90;;;;;;2076370;28;19913;-74
2023/08/24 05:16:29;;;;;;;;;;;19.80;99.90;;;;;;2078204;28;19917;-74
2023/08/24 05:17:31;;;;;;;;;;;20.00;99.90;;;;;;2076043;28;19925;-76
2023/08/24 05:18:34;;;;;;;;;;;20.30;99.90;;;;;;2075436;28;19913;-74
2023/08/24 05:19:34;;;;;;;;;;;20.50;99.90;;;;;;2075128;28;20327;-74
2023/08/24 05:20:35;;;;;;;;;;;20.70;99.90;;;;;;2074516;28;19948;-74
2023/08/24 05:21:35;;;;;;;;;;;20.90;99.90;;;;;;2074571;28;19944;-75
2023/08/24 05:22:36;;;;;;;;;;;21.00;99.90;;;;;;2074681;28;19956;-75
2023/08/24 05:23:36;;;;;;;;;;;21.10;99.90;;;;;;2062110;28;19913;-75
2023/08/24 05:24:37;;;;;;;;;;;21.20;99.90;;;;;;2066587;28;20676;-74
2023/08/24 05:25:37;;;;;;;;;;;21.30;99.90;;;;;;2073956;28;23702;-75
2023/08/24 05:26:38;;;;;;;;;;;21.40;99.90;;;;;;2075347;28;20011;-76
2023/08/24 05:27:39;;;;;;;;;;;21.50;99.90;;;;;;2074800;28;20427;-75
2023/08/24 05:28:39;;;;;;;;;;;21.50;99.90;;;;;;2074544;28;19917;-75
2023/08/24 05:29:40;;;;;;;;;;;21.60;99.90;;;;;;2074735;28;20300;-75
2023/08/24 05:30:40;;;;;;;;;;;21.70;99.90;;;;;;2066432;28;20333;-73
2023/08/24 05:31:41;;;;;;;;;;;21.90;99.90;;;;;;2066499;28;20005;-73
2023/08/24 05:32:41;;;;;;;;;;;22.00;99.90;;;;;;2067339;28;19991;-74
2023/08/24 05:33:42;;;;;;;;;;;22.10;99.90;;;;;;2074789;28;19967;-74
2023/08/24 05:34:42;;;;;;;;;;;22.10;99.90;;;;;;2066445;28;20318;-73
2023/08/24 05:35:43;;;;;;;;;;;22.20;99.90;;;;;;2068746;28;19917;-74
2023/08/24 05:36:43;;;;;;;;;;;22.30;99.90;;;;;;2069798;28;20187;-74
2023/08/24 05:37:44;;;;;;;;;;;22.40;99.90;;;;;;2058267;28;19947;-74
2023/08/24 05:38:46;;;;;;;;;;;22.50;99.90;;;;;;2065875;28;20478;-73
2023/08/24 05:39:47;;;;;;;;;;;22.50;99.90;;;;;;2074677;28;19913;-74
2023/08/24 05:40:48;;;;;;;;;;;22.60;99.90;;;;;;2073925;28;19924;-74
2023/08/24 05:41:52;;;;;;;;;;;22.70;99.90;;;;;;2074738;28;19975;-71
2023/08/24 05:42:53;;;;;;;;;;;22.80;99.90;;;;;;2074673;28;19917;-73
2023/08/24 05:43:53;;;;;;;;;;;22.90;99.90;;;;;;2075531;28;19917;-74
2023/08/24 05:44:54;;;;;;;;;;;22.80;99.90;;;;;;2075376;28;19924;-73
2023/08/24 05:45:55;;;;;;;;;;;22.70;99.90;;;;;;2078655;28;19944;-74
2023/08/24 05:46:56;;;;;;;;;;;22.60;99.90;;;;;;2074813;28;19940;-73
2023/08/24 05:47:56;;;;;;;;;;;22.50;99.90;;;;;;2074422;28;19913;-74
2023/08/24 05:48:58;;;;;;;;;;;22.30;99.90;;;;;;2074685;28;19913;-74
2023/08/24 05:49:58;;;;;;;;;;;22.10;99.90;;;;;;2074881;28;20390;-75
2023/08/24 05:50:59;;;;;;;;;;;21.90;99.90;;;;;;2074465;28;19917;-74
2023/08/24 05:51:59;;;;;;;;;;;21.60;99.90;;;;;;2074598;28;19952;-74
2023/08/24 05:53:00;;;;;;;;;;;21.40;99.90;;;;;;2076460;28;19917;-74
2023/08/24 05:54:00;;;;;;;;;;;21.20;99.90;;;;;;2066343;28;20032;-74
2023/08/24 05:55:01;;;;;;;;;;;21.10;99.90;;;;;;2074471;28;19920;-73
2023/08/24 05:56:01;;;;;;;;;;;21.00;99.90;;;;;;2074601;28;19913;-74
2023/08/24 05:57:03;;;;;;;;;;;20.90;99.90;;;;;;2066518;28;19961;-74